Time;durP1;ratioP1;P1;durP2;ratioP2;P2;SDS_P1;SDS_P2;PMS_P1;PMS_P2;Temp;Humidity;BMP_temperature;BMP_pressure;BME280_temperature;BME280_humidity;BME280_pressure;Samples;Min_cycle;Max_cycle;Signal;HPM_P1;HPM_P2
2023/05/10 00:00:33;;;;;;;41.00;21.05;;;12.10;99.90;;;;;;5076732;28;20127;-27
2023/05/10 00:02:59;;;;;;;36.50;19.85;;;12.30;99.90;;;;;;5076878;28;20103;-27
2023/05/10 00:05:25;;;;;;;40.50;22.10;;;12.20;99.90;;;;;;5075406;28;20041;-27
2023/05/10 00:07:50;;;;;;;40.85;21.20;;;12.30;99.90;;;;;;5076603;28;20054;-27
2023/05/10 00:10:16;;;;;;;44.60;22.33;;;11.90;99.90;;;;;;5075996;28;20044;-27
2023/05/10 00:12:42;;;;;;;46.28;22.90;;;12.30;99.90;;;;;;5076234;28;20040;-27
2023/05/10 00:15:08;;;;;;;41.88;22.75;;;11.90;99.90;;;;;;5076194;28;20398;-28
2023/05/10 00:17:34;;;;;;;46.15;22.35;;;11.90;99.90;;;;;;5076695;28;20040;-27
2023/05/10 00:20:00;;;;;;;41.92;21.38;;;11.80;99.90;;;;;;5075781;28;20512;-26
2023/05/10 00:22:26;;;;;;;34.10;19.00;;;12.10;99.90;;;;;;5075680;28;20049;-27
2023/05/10 00:24:51;;;;;;;38.35;20.77;;;12.30;99.90;;;;;;5075700;28;20084;-29
2023/05/10 00:27:17;;;;;;;37.03;20.50;;;12.30;99.90;;;;;;5075666;28;20084;-27
2023/05/10 00:29:43;;;;;;;31.75;18.67;;;12.30;99.90;;;;;;5075430;28;20048;-27
2023/05/10 00:32:08;;;;;;;33.25;18.65;;;12.10;99.90;;;;;;5075841;28;20048;-27
2023/05/10 00:34:34;;;;;;;28.55;16.38;;;12.20;99.90;;;;;;5076052;28;20483;-27
2023/05/10 00:37:00;;;;;;;34.67;19.88;;;12.10;99.90;;;;;;5075149;28;20049;-27
2023/05/10 00:39:26;;;;;;;35.70;19.23;;;11.90;99.90;;;;;;5075458;28;20041;-27
2023/05/10 00:41:52;;;;;;;26.77;17.50;;;11.80;99.90;;;;;;5075356;28;20044;-28
2023/05/10 00:44:18;;;;;;;16.48;12.20;;;12.10;99.90;;;;;;5075038;28;20059;-27
2023/05/10 00:46:44;;;;;;;19.38;13.90;;;12.00;99.90;;;;;;5075866;28;20053;-28
2023/05/10 00:49:10;;;;;;;16.10;12.57;;;12.10;99.90;;;;;;5075255;28;20077;-27
2023/05/10 00:51:36;;;;;;;18.95;13.57;;;11.60;99.90;;;;;;5075107;28;20517;-27
2023/05/10 00:54:02;;;;;;;19.40;14.18;;;11.60;99.90;;;;;;5075171;28;20072;-28
2023/05/10 00:56:29;;;;;;;20.98;14.15;;;12.00;99.90;;;;;;5075113;28;20129;-28
2023/05/10 00:58:55;;;;;;;20.90;13.82;;;11.90;99.90;;;;;;5075057;28;20048;-29
2023/05/10 01:01:21;;;;;;;26.88;17.67;;;11.60;99.90;;;;;;5074978;28;20128;-28
2023/05/10 01:03:48;;;;;;;26.95;15.60;;;12.00;99.90;;;;;;5074890;28;20044;-28
2023/05/10 01:06:13;;;;;;;22.77;15.77;;;11.70;99.90;;;;;;5074658;28;20052;-27
2023/05/10 01:08:43;;;;;;;26.65;16.83;;;11.60;99.90;;;;;;5074873;28;20040;-28
2023/05/10 01:11:09;;;;;;;27.20;16.60;;;11.80;99.90;;;;;;5073608;28;20572;-28
2023/05/10 01:13:40;;;;;;;23.42;15.68;;;11.50;99.90;;;;;;5075336;28;20048;-28
2023/05/10 01:16:07;;;;;;;26.35;15.95;;;11.60;99.90;;;;;;5074728;28;20055;-28
2023/05/10 01:18:41;;;;;;;39.20;19.77;;;12.00;99.90;;;;;;5074650;28;20048;-28
2023/05/10 01:21:29;;;;;;;27.65;17.67;;;11.70;99.90;;;;;;5073445;28;20101;-29
2023/05/10 01:24:21;;;;;;;31.60;18.10;;;11.60;99.90;;;;;;5075194;28;20052;-28
2023/05/10 01:27:34;;;;;;;27.10;16.63;;;11.50;99.90;;;;;;5071748;28;20052;-28
2023/05/10 01:30:06;;;;;;;26.67;16.58;;;11.90;99.90;;;;;;5062407;28;20052;-28
2023/05/10 01:33:03;;;;;;;20.27;14.07;;;11.90;99.90;;;;;;5074980;28;20439;-28
2023/05/10 01:35:39;;;;;;;17.63;12.95;;;11.80;99.90;;;;;;5074227;28;20052;-28
2023/05/10 01:38:25;;;;;;;22.02;15.82;;;11.80;99.90;;;;;;5074365;28;20048;-28
2023/05/10 01:41:03;;;;;;;22.95;15.75;;;11.40;99.90;;;;;;5073124;28;20060;-28
2023/05/10 01:43:36;;;;;;;22.30;15.43;;;11.40;99.90;;;;;;5072961;28;20525;-28
2023/05/10 01:46:10;;;;;;;;;;;11.70;99.90;;;;;;5073658;28;20051;-28
2023/05/10 01:48:46;;;;;;;21.15;15.88;;;11.80;99.90;;;;;;5074833;28;20036;-28
2023/05/10 01:51:15;;;;;;;23.52;15.50;;;11.90;99.90;;;;;;5074364;28;20398;-28
2023/05/10 01:53:43;;;;;;;20.70;15.20;;;11.90;99.90;;;;;;5074011;28;20093;-28
2023/05/10 01:56:10;;;;;;;16.70;12.57;;;11.90;99.90;;;;;;5074261;28;20053;-28
2023/05/10 01:58:37;;;;;;;14.75;12.10;;;11.80;99.90;;;;;;5072795;28;20059;-28
2023/05/10 02:01:05;;;;;;;19.05;13.65;;;11.80;99.90;;;;;;5073909;28;20045;-28
2023/05/10 02:03:34;;;;;;;17.13;14.05;;;11.80;99.90;;;;;;5072636;28;20041;-28
2023/05/10 02:06:00;;;;;;;16.98;13.60;;;11.40;99.90;;;;;;5074642;28;20119;-29
2023/05/10 02:08:26;;;;;;;16.58;13.23;;;11.40;99.90;;;;;;5073830;28;20446;-28
2023/05/10 02:10:55;;;;;;;19.40;14.48;;;11.80;99.90;;;;;;5072864;28;20123;-29
2023/05/10 02:13:23;;;;;;;21.52;14.82;;;11.40;99.90;;;;;;5073733;28;20080;-29
2023/05/10 02:15:50;;;;;;;23.00;15.63;;;11.80;99.90;;;;;;5074048;28;20088;-28
2023/05/10 02:18:17;;;;;;;27.88;18.10;;;11.90;99.90;;;;;;5071844;28;20491;-28
2023/05/10 02:20:46;;;;;;;29.13;17.60;;;11.30;99.90;;;;;;5074286;28;20545;-29
2023/05/10 02:23:13;;;;;;;34.70;20.25;;;11.60;99.90;;;;;;5073574;28;20509;-30
2023/05/10 02:25:40;;;;;;;32.85;18.33;;;11.40;99.90;;;;;;5074163;28;20091;-29
2023/05/10 02:28:08;;;;;;;40.97;20.40;;;11.30;99.90;;;;;;5074703;28;20106;-29
2023/05/10 02:30:35;;;;;;;38.30;20.88;;;11.30;99.90;;;;;;5073578;28;20056;-29
2023/05/10 02:33:03;;;;;;;46.95;24.13;;;11.30;99.90;;;;;;5073435;28;20076;-29
2023/05/10 02:35:30;;;;;;;41.75;22.65;;;11.70;99.90;;;;;;5073530;28;20447;-29
2023/05/10 02:37:58;;;;;;;42.92;22.63;;;11.80;99.90;;;;;;5073535;28;20403;-29
2023/05/10 02:40:24;;;;;;;47.53;24.00;;;11.50;99.90;;;;;;5073570;28;20044;-29
2023/05/10 02:42:54;;;;;;;48.67;24.17;;;11.40;99.90;;;;;;5074233;28;20068;-29
2023/05/10 02:45:24;;;;;;;46.90;23.30;;;11.70;99.90;;;;;;5073484;28;20127;-29
2023/05/10 02:47:50;;;;;;;56.78;26.88;;;11.70;99.90;;;;;;5074313;28;20041;-29
2023/05/10 02:50:16;;;;;;;48.53;22.60;;;11.60;99.90;;;;;;5073325;28;20547;-29
2023/05/10 02:52:47;;;;;;;55.72;24.30;;;11.30;99.90;;;;;;5072466;28;20053;-29
2023/05/10 02:55:16;;;;;;;70.38;27.20;;;11.70;99.90;;;;;;5073418;28;20044;-29
2023/05/10 02:57:59;;;;;;;47.42;23.10;;;11.50;99.90;;;;;;5073896;28;20049;-29
2023/05/10 03:00:25;;;;;;;48.25;22.58;;;11.70;99.90;;;;;;5073198;28;20055;-29
2023/05/10 03:02:52;;;;;;;46.45;21.88;;;11.70;99.90;;;;;;5073262;28;20049;-29
2023/05/10 03:05:18;;;;;;;54.88;24.13;;;11.30;99.90;;;;;;5073272;28;20066;-29
2023/05/10 03:07:45;;;;;;;55.50;25.58;;;11.70;99.90;;;;;;5072945;28;20490;-29
2023/05/10 03:10:11;;;;;;;58.75;25.00;;;11.70;99.90;;;;;;5073237;28;20049;-29
2023/05/10 03:12:46;;;;;;;52.67;24.33;;;11.70;99.90;;;;;;5073186;28;20036;-29
2023/05/10 03:15:24;;;;;;;57.75;25.60;;;11.30;99.90;;;;;;5072265;28;20053;-29
2023/05/10 03:18:05;;;;;;;36.85;18.00;;;11.70;99.90;;;;;;5072190;28;20102;-29
2023/05/10 03:20:43;;;;;;;53.50;22.05;;;11.80;99.90;;;;;;5073175;28;20055;-29
2023/05/10 03:23:17;;;;;;;51.80;20.92;;;11.50;99.90;;;;;;5073097;28;20048;-29
2023/05/10 03:25:46;;;;;;;35.28;17.13;;;11.70;99.90;;;;;;5073038;28;20048;-29
2023/05/10 03:28:14;;;;;;;26.52;13.95;;;11.70;99.90;;;;;;5073434;28;20041;-29
2023/05/10 03:30:41;;;;;;;32.22;15.85;;;11.80;99.90;;;;;;5076761;28;20422;-29
2023/05/10 03:33:07;;;;;;;28.25;14.57;;;11.50;99.90;;;;;;5076674;28;20052;-29
2023/05/10 03:35:33;;;;;;;22.25;12.07;;;11.40;99.90;;;;;;5076623;28;20109;-29
2023/05/10 03:37:58;;;;;;;29.67;13.32;;;11.70;99.90;;;;;;5077136;28;20075;-30
2023/05/10 03:40:25;;;;;;;23.60;14.13;;;11.30;99.90;;;;;;5075479;28;20176;-30
2023/05/10 03:42:51;;;;;;;22.00;13.10;;;11.80;99.90;;;;;;5076447;28;20102;-29
2023/05/10 03:45:17;;;;;;;20.42;13.70;;;11.50;99.90;;;;;;5076484;28;20040;-29
2023/05/10 03:47:43;;;;;;;22.40;12.60;;;11.70;99.90;;;;;;5076456;28;20051;-29
2023/05/10 03:50:10;;;;;;;22.08;14.57;;;11.30;99.90;;;;;;5076355;28;20048;-29
2023/05/10 03:52:36;;;;;;;16.52;12.15;;;11.70;99.90;;;;;;5091836;28;20483;-29
2023/05/10 03:55:03;;;;;;;17.88;13.05;;;11.70;99.90;;;;;;5076333;28;20137;-29
2023/05/10 03:57:29;;;;;;;17.70;12.90;;;11.70;99.90;;;;;;5076220;28;20078;-29
2023/05/10 03:59:54;;;;;;;17.67;12.77;;;11.60;99.90;;;;;;5091893;28;20368;-29
2023/05/10 04:02:20;;;;;;;16.08;11.32;;;11.80;99.90;;;;;;5075885;28;20041;-29
2023/05/10 04:04:46;;;;;;;13.75;9.38;;;11.40;99.90;;;;;;5074881;28;20044;-28
2023/05/10 04:07:12;;;;;;;17.33;11.88;;;11.50;99.90;;;;;;5058710;28;20131;-28
2023/05/10 04:09:37;;;;;;;16.33;13.32;;;11.70;99.90;;;;;;5091728;28;20098;-29
2023/05/10 04:12:03;;;;;;;18.80;13.52;;;11.30;99.90;;;;;;5075954;28;20158;-28
2023/05/10 04:14:29;;;;;;;14.55;11.55;;;11.50;99.90;;;;;;5076002;28;20110;-29
2023/05/10 04:16:55;;;;;;;19.50;14.00;;;11.30;99.90;;;;;;5074893;28;20067;-29
2023/05/10 04:19:20;;;;;;;18.95;13.52;;;11.60;99.90;;;;;;5091455;28;20045;-30
2023/05/10 04:21:46;;;;;;;15.30;10.80;;;11.40;99.90;;;;;;5076580;28;20048;-29
2023/05/10 04:24:12;;;;;;;18.63;13.52;;;11.70;99.90;;;;;;5076283;28;20048;-29
2023/05/10 04:26:37;;;;;;;16.95;12.52;;;11.40;99.90;;;;;;5075008;28;20071;-29
2023/05/10 04:29:03;;;;;;;22.30;12.95;;;11.30;99.90;;;;;;5075925;28;20364;-29
2023/05/10 04:31:29;;;;;;;22.55;14.60;;;11.80;99.90;;;;;;5075624;28;20394;-29
2023/05/10 04:33:55;;;;;;;22.83;14.20;;;11.60;99.90;;;;;;5075634;28;20049;-30
2023/05/10 04:36:20;;;;;;;25.30;13.15;;;11.30;99.90;;;;;;5074543;28;20051;-29
2023/05/10 04:38:48;;;;;;;21.40;13.27;;;11.30;99.90;;;;;;5075493;28;20047;-28
2023/05/10 04:41:14;;;;;;;22.33;14.52;;;11.40;99.90;;;;;;5075118;28;20044;-29
2023/05/10 04:43:40;;;;;;;23.73;13.88;;;11.40;99.90;;;;;;5075283;28;20395;-28
2023/05/10 04:46:07;;;;;;;30.52;17.13;;;11.50;99.90;;;;;;5075185;28;20072;-28
2023/05/10 04:48:33;;;;;;;36.92;18.55;;;11.40;99.90;;;;;;5074455;28;20076;-27
2023/05/10 04:50:59;;;;;;;28.60;17.15;;;11.40;99.90;;;;;;5075829;28;20374;-27
2023/05/10 04:53:24;;;;;;;28.30;17.02;;;11.80;99.90;;;;;;5075141;28;20040;-27
2023/05/10 04:55:50;;;;;;;35.05;19.20;;;11.40;99.90;;;;;;5075398;28;20048;-27
2023/05/10 04:58:16;;;;;;;31.73;16.17;;;11.40;99.90;;;;;;5073888;28;20073;-27
2023/05/10 05:00:42;;;;;;;31.75;17.90;;;11.70;99.90;;;;;;5075077;28;20051;-26
2023/05/10 05:03:08;;;;;;;33.92;16.73;;;11.50;99.90;;;;;;5057070;28;20048;-27
2023/05/10 05:05:33;;;;;;;32.55;17.17;;;11.90;99.90;;;;;;5073952;28;20055;-27
2023/05/10 05:07:59;;;;;;;27.08;16.50;;;11.80;99.90;;;;;;5057228;28;20132;-26
2023/05/10 05:10:25;;;;;;;39.05;17.88;;;11.40;99.90;;;;;;5074812;28;20049;-26
2023/05/10 05:12:50;;;;;;;39.40;18.55;;;11.40;99.90;;;;;;5090056;28;20048;-25
2023/05/10 05:15:16;;;;;;;30.08;14.52;;;11.90;99.90;;;;;;5074756;28;20048;-26
2023/05/10 05:17:43;;;;;;;32.50;14.65;;;11.90;99.90;;;;;;5075257;28;20052;-25
2023/05/10 05:20:10;;;;;;;26.58;14.88;;;11.90;99.90;;;;;;5073408;28;20052;-25
2023/05/10 05:22:39;;;;;;;37.78;15.95;;;11.60;99.90;;;;;;5074494;28;20041;-25
2023/05/10 05:25:05;;;;;;;27.48;13.00;;;12.00;99.90;;;;;;5074527;28;20055;-25
2023/05/10 05:27:31;;;;;;;38.30;17.33;;;11.70;99.90;;;;;;5074451;28;20505;-25
2023/05/10 05:29:57;;;;;;;29.92;13.70;;;12.00;99.90;;;;;;5090177;28;20127;-25
2023/05/10 05:32:24;;;;;;;29.08;12.32;;;12.00;99.90;;;;;;5074337;28;20056;-24
2023/05/10 05:34:50;;;;;;;34.28;15.40;;;11.50;99.90;;;;;;5090016;28;20044;-24
2023/05/10 05:37:17;;;;;;;25.77;12.68;;;11.60;99.90;;;;;;5074339;28;20052;-25
2023/05/10 05:39:43;;;;;;;25.67;13.48;;;11.70;99.90;;;;;;5074277;28;20060;-24
2023/05/10 05:42:09;;;;;;;14.35;8.07;;;11.80;99.90;;;;;;5074133;28;20045;-23
2023/05/10 05:44:35;;;;;;;13.32;7.15;;;12.10;99.90;;;;;;5074204;28;20053;-24
2023/05/10 05:47:01;;;;;;;9.40;5.93;;;12.00;99.90;;;;;;5074096;28;20049;-24
2023/05/10 05:49:26;;;;;;;9.93;6.55;;;12.00;99.90;;;;;;5074105;28;20076;-24
2023/05/10 05:51:52;;;;;;;9.43;4.80;;;11.70;99.90;;;;;;5072009;28;20051;-24
2023/05/10 05:54:18;;;;;;;10.38;6.97;;;12.10;99.90;;;;;;5072782;28;20139;-23
2023/05/10 05:56:44;;;;;;;10.70;6.88;;;11.70;99.90;;;;;;5074825;28;20055;-24
2023/05/10 05:59:10;;;;;;;10.75;7.53;;;12.00;99.90;;;;;;5073946;28;20418;-23
2023/05/10 06:01:36;;;;;;;11.43;6.82;;;11.50;99.90;;;;;;5055970;28;20045;-23
2023/05/10 06:04:04;;;;;;;15.52;8.77;;;11.50;99.90;;;;;;5073925;28;20054;-23
2023/05/10 06:06:30;;;;;;;19.17;9.80;;;11.80;99.90;;;;;;5074383;28;20047;-23
2023/05/10 06:08:56;;;;;;;35.28;16.10;;;12.00;99.90;;;;;;5089683;28;20044;-23
2023/05/10 06:11:21;;;;;;;42.55;21.42;;;11.90;99.90;;;;;;5073773;28;20499;-22
2023/05/10 06:13:47;;;;;;;47.25;23.63;;;11.80;99.90;;;;;;5073797;28;20080;-23
2023/05/10 06:16:13;;;;;;;59.50;30.17;;;11.60;99.90;;;;;;5073962;28;20082;-22
2023/05/10 06:18:39;;;;;;;70.38;33.03;;;11.30;99.90;;;;;;5073662;28;20044;-22
2023/05/10 06:21:05;;;;;;;81.97;36.13;;;11.60;99.90;;;;;;5073531;28;20101;-22
2023/05/10 06:23:30;;;;;;;75.03;33.45;;;11.30;99.90;;;;;;5072466;28;20047;-22
2023/05/10 06:25:56;;;;;;;62.20;28.85;;;11.70;99.90;;;;;;5074268;28;20066;-22
2023/05/10 06:28:22;;;;;;;51.05;25.92;;;11.30;99.90;;;;;;5073628;28;20090;-22
2023/05/10 06:30:48;;;;;;;41.60;21.30;;;11.80;99.90;;;;;;5073158;28;20131;-22
2023/05/10 06:33:14;;;;;;;34.88;18.00;;;11.40;99.90;;;;;;5072923;28;20044;-22
2023/05/10 06:35:39;;;;;;;26.88;16.92;;;11.60;99.90;;;;;;5074064;28;20048;-22
2023/05/10 06:38:05;;;;;;;20.73;14.13;;;11.50;99.90;;;;;;5073499;28;20056;-22
2023/05/10 06:40:32;;;;;;;14.77;9.77;;;11.20;99.90;;;;;;5073345;28;20118;-22
2023/05/10 06:42:58;;;;;;;21.90;14.75;;;11.60;99.90;;;;;;5039658;28;20040;-22
2023/05/10 06:45:24;;;;;;;18.15;11.40;;;11.70;99.90;;;;;;5072211;28;20478;-22
2023/05/10 06:47:49;;;;;;;17.73;11.98;;;11.20;99.90;;;;;;5072984;28;20048;-22
2023/05/10 06:50:15;;;;;;;17.02;11.85;;;11.40;99.90;;;;;;5073852;28;20056;-22
2023/05/10 06:52:41;;;;;;;19.52;12.75;;;11.20;99.90;;;;;;5072224;28;20043;-22
2023/05/10 06:55:08;;;;;;;18.10;13.23;;;11.40;99.90;;;;;;5072423;28;20479;-22
2023/05/10 06:57:33;;;;;;;21.88;13.30;;;11.40;99.90;;;;;;5073408;28;20406;-22
2023/05/10 06:59:59;;;;;;;18.60;11.38;;;11.40;99.90;;;;;;5073594;28;20049;-23
2023/05/10 07:02:25;;;;;;;11.80;8.40;;;11.40;99.90;;;;;;5073219;28;20539;-22
2023/05/10 07:04:52;;;;;;;16.60;11.20;;;11.60;99.90;;;;;;5077963;28;20391;-23
2023/05/10 07:07:18;;;;;;;17.17;11.18;;;11.80;99.90;;;;;;5076498;28;20040;-23
2023/05/10 07:09:44;;;;;;;13.00;9.48;;;11.80;99.90;;;;;;5076977;28;20056;-23
2023/05/10 07:12:10;;;;;;;10.27;7.70;;;11.50;99.90;;;;;;5077072;28;20491;-23
2023/05/10 07:14:36;;;;;;;5.55;4.75;;;11.50;99.90;;;;;;5076419;28;20137;-23
2023/05/10 07:17:01;;;;;;;7.82;6.95;;;11.60;99.90;;;;;;5077305;28;20390;-23
2023/05/10 07:19:29;;;;;;;7.45;6.30;;;12.00;99.90;;;;;;5076013;28;20503;-23
2023/05/10 07:21:55;;;;;;;9.60;7.85;;;11.80;99.90;;;;;;5076834;28;20049;-23
2023/05/10 07:24:20;;;;;;;9.68;7.15;;;12.00;99.90;;;;;;5076860;28;20047;-22
2023/05/10 07:26:46;;;;;;;11.63;9.07;;;11.70;99.90;;;;;;5075676;28;20193;-23
2023/05/10 07:29:12;;;;;;;13.68;9.15;;;11.80;99.90;;;;;;5076731;28;20473;-23
2023/05/10 07:31:38;;;;;;;11.40;7.35;;;11.90;99.90;;;;;;5076492;28;20060;-23
2023/05/10 07:34:04;;;;;;;9.68;7.80;;;11.70;99.90;;;;;;5076666;28;20045;-23
2023/05/10 07:36:29;;;;;;;10.95;8.00;;;11.70;99.90;;;;;;5058983;28;20058;-23
2023/05/10 07:38:57;;;;;;;11.95;8.23;;;11.70;99.90;;;;;;5075988;28;20044;-23
2023/05/10 07:41:23;;;;;;;14.07;8.95;;;12.20;99.90;;;;;;5075885;28;20127;-24
2023/05/10 07:43:49;;;;;;;12.68;8.30;;;12.20;99.90;;;;;;5076425;28;20136;-24
2023/05/10 07:46:14;;;;;;;9.95;6.45;;;11.70;99.90;;;;;;5092153;28;20048;-24
2023/05/10 07:48:40;;;;;;;11.65;7.53;;;11.70;99.90;;;;;;5076390;28;20086;-24
2023/05/10 07:51:09;;;;;;;10.55;7.30;;;12.10;99.90;;;;;;5058647;28;20056;-25
2023/05/10 07:53:34;;;;;;;9.07;7.07;;;12.10;99.90;;;;;;5075985;28;20502;-24
2023/05/10 07:56:32;;;;;;;11.70;8.13;;;12.20;99.90;;;;;;5091871;28;20040;-25
2023/05/10 07:58:58;;;;;;;11.77;8.23;;;11.70;99.90;;;;;;5076234;28;20040;-25
2023/05/10 08:01:26;;;;;;;11.18;8.85;;;11.80;99.90;;;;;;5075854;28;20529;-25
2023/05/10 08:03:53;;;;;;;9.00;7.80;;;12.30;99.90;;;;;;5091686;28;20052;-25
2023/05/10 08:06:20;;;;;;;10.32;7.95;;;11.80;99.90;;;;;;5076057;28;20052;-25
2023/05/10 08:08:49;;;;;;;9.48;7.57;;;12.20;99.90;;;;;;5076550;28;20047;-25
2023/05/10 08:11:21;;;;;;;10.90;8.32;;;12.20;99.90;;;;;;5074881;28;20055;-25
2023/05/10 08:13:48;;;;;;;10.15;9.05;;;12.20;99.90;;;;;;5090912;28;20040;-26
2023/05/10 08:16:14;;;;;;;13.70;9.52;;;11.90;99.90;;;;;;5074157;28;20059;-26
2023/05/10 08:18:40;;;;;;;13.00;9.88;;;12.20;99.90;;;;;;5075475;28;20040;-26
2023/05/10 08:21:06;;;;;;;12.30;9.90;;;12.30;99.90;;;;;;5075866;28;20040;-26
2023/05/10 08:23:32;;;;;;;12.60;9.88;;;12.20;99.90;;;;;;5076243;28;20041;-26
2023/05/10 08:26:00;;;;;;;11.02;7.75;;;11.90;99.90;;;;;;5074623;28;20048;-26
2023/05/10 08:28:28;;;;;;;11.23;9.05;;;12.30;99.90;;;;;;5091283;28;20045;-26
2023/05/10 08:30:57;;;;;;;11.27;9.50;;;11.80;99.90;;;;;;5075310;28;20053;-26
2023/05/10 08:33:24;;;;;;;10.77;9.05;;;12.10;99.90;;;;;;5075592;28;20048;-26
2023/05/10 08:35:50;;;;;;;11.90;10.32;;;12.20;99.90;;;;;;5074935;28;20379;-26
2023/05/10 08:38:16;;;;;;;13.65;9.32;;;12.20;99.90;;;;;;5057814;28;20083;-26
2023/05/10 08:40:43;;;;;;;11.68;9.13;;;11.90;99.90;;;;;;5091101;28;20044;-27
2023/05/10 08:43:14;;;;;;;13.15;8.40;;;11.80;99.90;;;;;;5074108;28;20416;-26
2023/05/10 08:45:41;;;;;;;11.88;8.05;;;12.00;99.90;;;;;;5076245;28;20055;-26
2023/05/10 08:48:10;;;;;;;8.85;7.93;;;12.00;99.90;;;;;;5075615;28;20052;-27
2023/05/10 08:50:39;;;;;;;10.38;8.45;;;11.80;99.90;;;;;;5075198;28;20053;-26
2023/05/10 08:53:09;;;;;;;12.75;8.70;;;11.90;99.90;;;;;;5076027;28;20395;-26
2023/05/10 08:55:38;;;;;;;10.20;8.38;;;12.30;99.90;;;;;;5075094;28;20457;-26
2023/05/10 08:58:07;;;;;;;10.35;7.50;;;12.30;99.90;;;;;;5075166;28;20059;-27
2023/05/10 09:00:34;;;;;;;7.90;6.80;;;12.30;99.90;;;;;;5057295;28;20499;-27
2023/05/10 09:03:02;;;;;;;12.00;8.48;;;12.30;99.90;;;;;;5057123;28;20557;-27
2023/05/10 09:05:28;;;;;;;10.13;7.22;;;12.40;99.90;;;;;;5074939;28;20056;-27
2023/05/10 09:07:54;;;;;;;11.43;8.48;;;12.50;99.90;;;;;;5074862;28;20049;-27
2023/05/10 09:10:21;;;;;;;11.48;8.27;;;12.50;99.90;;;;;;5075430;28;20076;-27
2023/05/10 09:12:48;;;;;;;9.68;7.72;;;12.70;99.90;;;;;;5073766;28;20051;-28
2023/05/10 09:15:19;;;;;;;9.23;6.53;;;12.60;99.90;;;;;;5057115;28;20399;-28
2023/05/10 09:17:47;;;;;;;8.25;6.78;;;12.90;99.90;;;;;;5074704;28;20048;-28
2023/05/10 09:20:12;;;;;;;9.65;6.55;;;13.10;99.90;;;;;;5074940;28;20044;-30
2023/05/10 09:22:38;;;;;;;6.40;5.35;;;13.00;99.90;;;;;;5057081;28;20386;-28
2023/05/10 09:25:07;;;;;;;8.25;5.43;;;13.20;99.90;;;;;;5074588;28;20040;-28
2023/05/10 09:27:34;;;;;;;5.90;5.28;;;13.30;99.90;;;;;;5073263;28;20458;-29
2023/05/10 09:30:00;;;;;;;7.90;5.03;;;13.30;99.90;;;;;;5074216;28;20083;-28
2023/05/10 09:32:39;;;;;;;9.23;5.53;;;13.10;99.90;;;;;;5074987;28;20095;-28
2023/05/10 09:35:13;;;;;;;5.65;5.10;;;13.10;99.90;;;;;;5074184;28;20091;-28
2023/05/10 09:37:41;;;;;;;7.05;5.53;;;13.20;99.90;;;;;;5074341;28;20106;-28
2023/05/10 09:40:10;;;;;;;7.25;5.28;;;13.50;99.90;;;;;;5073876;28;20127;-28
2023/05/10 09:42:36;;;;;;;7.28;5.13;;;13.60;99.90;;;;;;5072937;28;20080;-28
2023/05/10 09:45:10;;;;;;;7.90;5.82;;;13.80;99.90;;;;;;5074869;28;20082;-29
2023/05/10 09:47:36;;;;;;;6.80;5.13;;;13.90;99.90;;;;;;5074148;28;20102;-28
2023/05/10 09:50:03;;;;;;;7.55;5.90;;;13.90;99.90;;;;;;5055893;28;20052;-28
2023/05/10 09:52:47;;;;;;;8.32;5.82;;;14.00;99.90;;;;;;5072770;28;20128;-28
2023/05/10 09:55:13;;;;;;;6.13;5.53;;;13.90;99.90;;;;;;5074003;28;20052;-28
2023/05/10 09:57:40;;;;;;;7.47;5.65;;;14.00;99.90;;;;;;5074015;28;20056;-28
2023/05/10 10:00:09;;;;;;;8.10;6.05;;;13.90;99.90;;;;;;5074368;28;20379;-28
2023/05/10 10:02:36;;;;;;;8.93;5.68;;;13.90;99.90;;;;;;5074087;28;20044;-28
2023/05/10 10:05:05;;;;;;;6.50;4.53;;;14.10;99.90;;;;;;5073914;28;20110;-28
2023/05/10 10:07:31;;;;;;;5.38;4.28;;;14.00;99.90;;;;;;5073807;28;20048;-29
2023/05/10 10:09:58;;;;;;;7.18;5.00;;;14.00;99.90;;;;;;5072565;28;20101;-28
2023/05/10 10:12:25;;;;;;;7.35;6.28;;;13.90;99.90;;;;;;5073439;28;20490;-29
2023/05/10 10:14:51;;;;;;;9.20;6.63;;;14.00;99.90;;;;;;5073430;28;20589;-28
2023/05/10 10:17:17;;;;;;;9.98;8.18;;;13.70;99.90;;;;;;5073301;28;20364;-28
2023/05/10 10:19:44;;;;;;;11.57;8.73;;;13.70;99.90;;;;;;5073622;28;20040;-28
2023/05/10 10:22:12;;;;;;;8.75;7.68;;;13.70;99.90;;;;;;5074061;28;20548;-29
2023/05/10 10:24:41;;;;;;;10.38;8.23;;;13.70;99.90;;;;;;5073604;28;20085;-28
2023/05/10 10:27:24;;;;;;;9.07;7.75;;;13.80;99.90;;;;;;5073540;28;20044;-28
2023/05/10 10:30:28;;;;;;;8.73;7.82;;;13.70;99.90;;;;;;5072946;28;20102;-29
2023/05/10 10:33:02;;;;;;;8.63;7.25;;;13.90;99.90;;;;;;5073592;28;20048;-28
2023/05/10 10:35:30;;;;;;;8.82;7.07;;;13.90;99.90;;;;;;5073485;28;20478;-28
2023/05/10 10:37:57;;;;;;;9.15;6.05;;;14.00;99.90;;;;;;5072981;28;20045;-28
2023/05/10 10:40:27;;;;;;;9.90;7.28;;;13.90;99.90;;;;;;5072564;28;20368;-28
2023/05/10 10:42:53;;;;;;;11.38;8.73;;;14.10;99.90;;;;;;5073304;28;20040;-29
2023/05/10 10:45:20;;;;;;;9.45;8.27;;;14.50;99.90;;;;;;5073337;28;20095;-29
2023/05/10 10:47:47;;;;;;;12.20;9.73;;;14.70;99.90;;;;;;5072302;28;20040;-29
2023/05/10 10:50:12;;;;;;;11.75;9.10;;;15.00;99.90;;;;;;5073307;28;20048;-29
2023/05/10 10:52:40;;;;;;;11.68;8.88;;;15.10;99.90;;;;;;5073572;28;20036;-28
2023/05/10 10:55:22;;;;;;;12.70;9.55;;;15.00;99.90;;;;;;5073344;28;20443;-28
2023/05/10 10:58:00;;;;;;;9.35;7.28;;;14.90;99.90;;;;;;5073892;28;20056;-29
2023/05/10 11:00:32;;;;;;;11.40;8.73;;;14.80;99.90;;;;;;5073358;28;20114;-30
2023/05/10 11:02:59;;;;;;;11.77;9.13;;;14.50;99.90;;;;;;5072111;28;20482;-30
2023/05/10 11:05:25;;;;;;;11.63;8.88;;;14.70;99.90;;;;;;5073244;28;20052;-29
2023/05/10 11:07:58;;;;;;;12.88;10.10;;;14.80;99.90;;;;;;5055506;28;20048;-29
2023/05/10 11:10:25;;;;;;;11.38;9.38;;;14.80;99.90;;;;;;5073100;28;20049;-28
2023/05/10 11:13:05;;;;;;;12.43;9.23;;;14.90;99.90;;;;;;5072862;28;20517;-29
2023/05/10 11:15:33;;;;;;;10.15;8.60;;;15.00;99.90;;;;;;5071904;28;20057;-29
2023/05/10 11:18:00;;;;;;;12.38;9.02;;;14.90;99.90;;;;;;5073138;28;20102;-28
2023/05/10 11:20:38;;;;;;;13.00;10.23;;;14.80;99.90;;;;;;5072864;28;20487;-29
2023/05/10 11:23:15;;;;;;;10.68;9.57;;;15.00;99.90;;;;;;5073058;28;20036;-29
2023/05/10 11:25:43;;;;;;;11.82;9.43;;;15.10;99.90;;;;;;5073012;28;20044;-29
2023/05/10 11:28:09;;;;;;;10.93;8.32;;;15.00;99.90;;;;;;5072989;28;20082;-30
2023/05/10 11:30:36;;;;;;;13.00;9.57;;;15.00;99.90;;;;;;5038289;28;20079;-29
2023/05/10 11:33:02;;;;;;;14.20;10.27;;;15.00;99.90;;;;;;5073017;28;20478;-29
2023/05/10 11:35:28;;;;;;;13.45;10.32;;;14.90;99.90;;;;;;5072502;28;20045;-29
2023/05/10 11:37:53;;;;;;;13.23;10.48;;;14.70;99.90;;;;;;5072314;28;20132;-29
2023/05/10 11:40:23;;;;;;;16.33;11.57;;;14.60;99.90;;;;;;5071673;28;20048;-29
2023/05/10 11:42:49;;;;;;;13.38;10.27;;;14.60;99.90;;;;;;5073606;28;20156;-30
2023/05/10 11:45:15;;;;;;;16.25;10.45;;;14.50;99.90;;;;;;5071657;28;20052;-29
2023/05/10 11:47:43;;;;;;;13.88;11.05;;;14.40;99.90;;;;;;5072844;28;20041;-29
2023/05/10 11:50:10;;;;;;;19.02;11.55;;;14.40;99.90;;;;;;5073681;28;20051;-29
2023/05/10 11:52:39;;;;;;;17.10;11.18;;;14.30;99.90;;;;;;5076237;28;20091;-29
2023/05/10 11:55:05;;;;;;;20.80;12.63;;;14.20;99.90;;;;;;5076822;28;20145;-30
2023/05/10 11:57:31;;;;;;;16.30;12.88;;;14.20;99.90;;;;;;5076253;28;20048;-29
2023/05/10 11:59:57;;;;;;;16.13;10.60;;;14.10;99.90;;;;;;5075611;28;20476;-30
2023/05/10 12:02:23;;;;;;;16.73;11.27;;;14.10;99.90;;;;;;5076670;28;20032;-29
2023/05/10 12:04:50;;;;;;;15.30;11.77;;;14.10;99.90;;;;;;5075831;28;20117;-30
2023/05/10 12:07:16;;;;;;;12.77;9.43;;;14.10;99.90;;;;;;5059218;28;20135;-30
2023/05/10 12:10:14;;;;;;;12.45;9.27;;;14.20;99.90;;;;;;5076006;28;20105;-30
2023/05/10 12:12:44;;;;;;;15.20;11.20;;;14.20;99.90;;;;;;5076490;28;20054;-29
2023/05/10 12:15:18;;;;;;;16.83;8.70;;;14.30;99.90;;;;;;5075865;28;20056;-29
2023/05/10 12:17:44;;;;;;;14.57;9.73;;;14.50;99.90;;;;;;5076742;28;20045;-29
2023/05/10 12:20:21;;;;;;;12.02;9.50;;;14.50;99.90;;;;;;5075794;28;20044;-29
2023/05/10 12:22:58;;;;;;;13.63;8.98;;;14.80;99.90;;;;;;5075761;28;20040;-29
2023/05/10 12:25:30;;;;;;;14.20;8.75;;;15.00;99.90;;;;;;5075833;28;20479;-29
2023/05/10 12:27:57;;;;;;;12.43;8.90;;;15.00;99.90;;;;;;5074823;28;20040;-29
2023/05/10 12:30:24;;;;;;;11.32;8.52;;;15.10;99.90;;;;;;5075077;28;20044;-29
2023/05/10 12:32:51;;;;;;;9.70;8.00;;;15.20;99.90;;;;;;5075684;28;20052;-29
2023/05/10 12:35:20;;;;;;;9.88;8.75;;;15.20;99.90;;;;;;5074624;28;20044;-29
2023/05/10 12:37:46;;;;;;;9.30;7.68;;;15.00;99.90;;;;;;5075618;28;20052;-29